Time;durP1;ratioP1;P1;durP2;ratioP2;P2;SDS_P1;SDS_P2;PMS_P1;PMS_P2;Temp;Humidity;BMP_temperature;BMP_pressure;BME280_temperature;BME280_humidity;BME280_pressure;Samples;Min_cycle;Max_cycle;Signal;HPM_P1;HPM_P2
2024/04/02 00:01:09;;;;;;;0.40;0.40;;;11.30;59.00;;;6.77;97.11;94785.31;4968649;28;20100;-56
2024/04/02 00:03:37;;;;;;;0.52;0.30;;;11.30;59.20;;;6.72;97.42;94796.66;4973742;28;20172;-58
2024/04/02 00:06:04;;;;;;;0.40;0.40;;;11.30;59.30;;;6.65;97.80;94793.47;4965296;28;20455;-57
2024/04/02 00:08:31;;;;;;;0.40;0.40;;;11.20;59.50;;;6.65;98.76;94808.56;4972793;28;20026;-54
2024/04/02 00:11:03;;;;;;;0.25;0.25;;;11.10;59.50;;;6.59;98.76;94815.69;4972104;28;20060;-57
2024/04/02 00:13:29;;;;;;;0.40;0.28;;;11.10;59.70;;;6.51;99.54;94818.81;4967502;28;20023;-57
2024/04/02 00:15:56;;;;;;;0.22;0.22;;;11.10;60.60;;;6.51;100.00;94818.81;4973709;28;20054;-57
2024/04/02 00:18:24;;;;;;;0.20;0.20;;;11.00;60.00;;;6.54;100.00;94815.63;4972256;28;20018;-51
2024/04/02 00:20:58;;;;;;;0.52;0.40;;;11.00;60.10;;;6.53;100.00;94816.72;4973516;28;20049;-51
2024/04/02 00:23:24;;;;;;;0.40;0.35;;;11.00;60.20;;;6.45;99.60;94817.97;4986636;28;20029;-53
2024/04/02 00:26:00;;;;;;;0.63;0.50;;;11.00;60.40;;;6.46;99.93;94822.22;4970959;28;20392;-57
2024/04/02 00:28:26;;;;;;;1.67;0.52;;;11.00;60.70;;;6.45;100.00;94823.25;4969339;28;20050;-55
2024/04/02 00:30:52;;;;;;;0.70;0.50;;;11.00;60.80;;;6.48;99.98;94828.03;4970057;28;20054;-57
2024/04/02 00:33:18;;;;;;;0.30;0.30;;;11.00;60.80;;;6.43;99.68;94833.31;4968267;28;20037;-56
2024/04/02 00:35:44;;;;;;;0.40;0.40;;;11.00;60.80;;;6.45;99.26;94817.97;4961141;28;20026;-56
2024/04/02 00:38:09;;;;;;;0.80;0.50;;;11.00;60.90;;;6.44;99.29;94836.75;4964786;28;20034;-57
2024/04/02 00:40:41;;;;;;;1.20;0.45;;;10.90;60.90;;;6.39;99.05;94826.13;4968061;28;20034;-55
2024/04/02 00:43:08;;;;;;;0.30;0.30;;;10.90;61.10;;;6.41;99.14;94835.41;4974385;28;20037;-56
2024/04/02 00:45:34;;;;;;;0.30;0.30;;;11.00;61.10;;;6.41;98.80;94837.28;4971925;28;20026;-57
2024/04/02 00:48:00;;;;;;;0.30;0.30;;;11.00;61.10;;;6.40;99.00;94855.00;4966298;28;20133;-57
2024/04/02 00:50:27;;;;;;;0.30;0.30;;;11.00;61.00;;;6.40;99.41;94851.56;4970590;28;20487;-57
2024/04/02 00:52:53;;;;;;;0.30;0.30;;;11.00;61.10;;;6.45;99.28;94856.88;4965136;28;20026;-54
2024/04/02 00:55:19;;;;;;;0.30;0.30;;;11.00;61.00;;;6.45;100.00;94855.00;4967139;28;20054;-50
2024/04/02 00:57:46;;;;;;;0.57;0.38;;;11.00;61.10;;;6.47;100.00;94866.16;4966959;28;20109;-58
2024/04/02 01:00:13;;;;;;;0.60;0.30;;;10.90;61.20;;;6.47;100.00;94860.06;4969974;28;20121;-57
2024/04/02 01:02:39;;;;;;;0.30;0.30;;;11.00;61.30;;;6.38;100.00;94878.25;4963906;28;20026;-58
2024/04/02 01:05:05;;;;;;;0.60;0.50;;;10.90;61.50;;;6.38;100.00;94880.13;4963949;28;20028;-58
2024/04/02 01:07:31;;;;;;;1.00;0.40;;;10.90;61.60;;;6.31;100.00;94871.59;4966428;28;20066;-57
2024/04/02 01:09:57;;;;;;;0.40;0.40;;;10.90;61.90;;;6.25;100.00;94874.22;4961251;28;20033;-52
2024/04/02 01:12:23;;;;;;;0.50;0.32;;;10.80;62.10;;;6.19;100.00;94872.56;4966415;28;20477;-52
2024/04/02 01:14:49;;;;;;;0.50;0.30;;;10.70;62.00;;;6.19;100.00;94877.06;4985862;28;20549;-57
2024/04/02 01:17:16;;;;;;;0.32;0.30;;;10.70;62.10;;;6.18;100.00;94876.28;4967801;28;20035;-58
2024/04/02 01:19:42;;;;;;;1.23;0.30;;;10.70;62.20;;;6.16;100.00;94877.59;4964616;28;20026;-57
2024/04/02 01:22:07;;;;;;;0.20;0.20;;;10.70;62.40;;;6.14;100.00;94880.50;4964420;28;20061;-54
2024/04/02 01:24:34;;;;;;;0.45;0.30;;;10.60;62.50;;;6.15;100.00;94883.94;4967602;28;20050;-57
2024/04/02 01:27:02;;;;;;;0.43;0.20;;;10.60;62.40;;;6.09;99.47;94872.50;4964681;28;20029;-57
2024/04/02 01:29:28;;;;;;;0.85;0.30;;;10.60;62.40;;;6.12;99.70;94874.66;4964723;28;20477;-57
2024/04/02 01:31:54;;;;;;;0.20;0.20;;;10.60;62.30;;;6.07;98.57;94879.88;4970982;28;20030;-55
2024/04/02 01:34:20;;;;;;;0.20;0.20;;;10.60;62.20;;;6.11;98.80;94888.94;4966643;28;20069;-54
2024/04/02 01:36:46;;;;;;;0.20;0.20;;;10.60;62.00;;;6.13;98.24;94901.88;4968983;28;20512;-58
2024/04/02 01:39:12;;;;;;;0.17;0.17;;;10.60;61.90;;;6.14;98.55;94908.75;4966659;28;20026;-56
2024/04/02 01:41:38;;;;;;;0.17;0.17;;;10.60;61.90;;;6.13;98.36;94907.97;4963112;28;20033;-54
2024/04/02 01:44:04;;;;;;;0.17;0.17;;;10.60;61.80;;;6.15;98.21;94913.81;4965752;28;20109;-56
2024/04/02 01:46:31;;;;;;;0.28;0.20;;;10.70;61.80;;;6.16;98.48;94914.59;4948698;28;20026;-55
2024/04/02 01:48:57;;;;;;;0.30;0.20;;;10.70;61.70;;;6.11;97.53;94923.31;4962414;28;20088;-56
2024/04/02 01:51:26;;;;;;;0.30;0.30;;;10.70;61.60;;;6.06;97.24;94917.16;4960058;28;20115;-53
2024/04/02 01:53:52;;;;;;;0.47;0.20;;;10.70;61.50;;;6.10;97.41;94932.28;4963768;28;20109;-51
2024/04/02 01:56:17;;;;;;;0.20;0.20;;;10.70;61.30;;;6.13;97.73;94938.91;4959569;28;20522;-54
2024/04/02 01:58:43;;;;;;;0.20;0.20;;;10.70;61.30;;;6.10;97.69;94936.75;4963104;28;20197;-57
2024/04/02 02:01:09;;;;;;;0.20;0.20;;;10.70;61.20;;;6.11;97.07;94923.31;4960863;28;20022;-55
2024/04/02 02:03:35;;;;;;;0.20;0.20;;;10.70;61.20;;;6.14;97.52;94932.56;4962057;28;20110;-57
2024/04/02 02:06:01;;;;;;;0.28;0.28;;;10.70;61.10;;;6.12;97.83;94934.69;4960870;28;20042;-57
2024/04/02 02:08:27;;;;;;;0.65;0.40;;;10.70;61.20;;;6.07;97.73;94937.25;4956919;28;20026;-57
2024/04/02 02:10:56;;;;;;;0.40;0.40;;;10.70;61.10;;;6.08;97.71;94934.38;4961429;28;20496;-57
2024/04/02 02:13:22;;;;;;;0.40;0.28;;;10.70;61.10;;;6.08;98.30;94936.22;4961862;28;20037;-55
2024/04/02 02:16:00;;;;;;;0.28;0.28;;;10.70;61.10;;;6.11;98.21;94943.63;4964761;28;20033;-56
2024/04/02 02:18:29;;;;;;;0.30;0.30;;;10.70;61.10;;;6.12;97.87;94946.03;4964159;28;20110;-55
2024/04/02 02:20:57;;;;;;;0.13;0.13;;;10.70;61.10;;;6.15;98.09;94940.25;4962930;28;20026;-57
2024/04/02 02:23:25;;;;;;;5.13;0.40;;;10.70;61.10;;;6.14;98.09;94938.66;4959423;28;20106;-58
2024/04/02 02:25:51;;;;;;;0.20;0.20;;;10.70;61.10;;;6.12;97.85;94939.97;4958158;28;20113;-57
2024/04/02 02:28:18;;;;;;;0.20;0.20;;;10.70;61.10;;;6.00;97.45;94940.13;4964162;28;20065;-57
2024/04/02 02:30:45;;;;;;;1.75;0.20;;;10.70;61.00;;;6.05;98.25;94942.00;4969894;28;20029;-55
2024/04/02 02:33:11;;;;;;;0.40;0.20;;;10.70;60.90;;;6.06;97.54;94948.91;4961610;28;20076;-52
2024/04/02 02:35:37;;;;;;;0.20;0.20;;;10.70;60.90;;;6.05;97.73;94948.09;4965679;28;20061;-55
2024/04/02 02:38:03;;;;;;;0.40;0.28;;;10.70;60.90;;;6.05;98.19;94944.63;4961692;28;20030;-57
2024/04/02 02:40:31;;;;;;;0.20;0.20;;;10.70;60.90;;;6.03;98.49;94951.00;4964108;28;20045;-55
2024/04/02 02:42:58;;;;;;;0.20;0.20;;;10.70;60.90;;;6.00;97.38;94950.69;4966244;28;20419;-55
2024/04/02 02:45:25;;;;;;;0.20;0.20;;;10.70;60.80;;;6.01;97.83;94952.28;4966223;28;20034;-53
2024/04/02 02:47:52;;;;;;;0.20;0.20;;;10.70;60.80;;;6.03;97.67;94947.56;4961254;28;20036;-55
2024/04/02 02:50:18;;;;;;;0.30;0.20;;;10.70;60.80;;;6.07;97.67;94945.19;4963336;28;20512;-55
2024/04/02 02:52:44;;;;;;;0.30;0.30;;;10.70;60.70;;;6.01;97.04;94952.28;4960354;28;20030;-55
2024/04/02 02:55:10;;;;;;;2.10;0.30;;;10.70;60.70;;;6.01;97.59;94955.72;4963412;28;20045;-55
2024/04/02 02:57:36;;;;;;;0.30;0.20;;;10.70;60.70;;;6.05;97.30;94957.84;4960546;28;20054;-59
2024/04/02 03:00:07;;;;;;;0.43;0.30;;;10.70;60.70;;;5.98;96.81;94947.50;4960537;28;20105;-57
2024/04/02 03:02:35;;;;;;;0.22;0.20;;;10.70;60.90;;;5.97;97.25;94959.91;4965569;28;20025;-57
2024/04/02 03:05:03;;;;;;;0.30;0.20;;;10.70;60.70;;;5.97;96.94;94962.56;4957865;28;20495;-56
2024/04/02 03:07:29;;;;;;;0.40;0.30;;;10.70;60.60;;;5.94;97.07;94960.41;4960216;28;20413;-56
2024/04/02 03:09:55;;;;;;;0.35;0.30;;;10.60;60.60;;;5.95;97.06;94961.22;4963697;28;20109;-55
2024/04/02 03:12:21;;;;;;;0.45;0.30;;;10.60;60.60;;;5.93;97.55;94952.75;4967126;28;20546;-56
2024/04/02 03:14:47;;;;;;;1.25;0.20;;;10.60;60.60;;;5.94;97.61;94952.50;4962707;28;20037;-57
2024/04/02 03:17:13;;;;;;;0.35;0.30;;;10.60;60.70;;;5.96;97.69;94960.97;4963403;28;20025;-57
2024/04/02 03:19:39;;;;;;;0.93;0.52;;;10.60;60.70;;;5.94;97.04;94960.41;4964936;28;20038;-54
2024/04/02 03:22:05;;;;;;;1.77;0.90;;;10.60;60.70;;;5.94;97.65;94959.63;4963042;28;20018;-54
2024/04/02 03:24:30;;;;;;;1.38;0.50;;;10.60;60.70;;;5.92;97.21;94956.41;4961612;28;20118;-57
2024/04/02 03:26:56;;;;;;;0.88;0.55;;;10.60;60.70;;;5.93;97.69;94955.41;4963320;28;20164;-56
2024/04/02 03:29:22;;;;;;;1.80;0.57;;;10.60;60.80;;;5.92;97.36;94951.94;4965674;28;20057;-57
2024/04/02 03:31:48;;;;;;;0.63;0.30;;;10.60;60.70;;;5.92;97.40;94959.03;4966719;28;20015;-51
2024/04/02 03:34:14;;;;;;;0.57;0.40;;;10.60;60.70;;;5.92;97.42;94966.97;4958828;28;20094;-52
2024/04/02 03:36:40;;;;;;;0.40;0.30;;;10.60;60.70;;;5.94;97.33;94965.72;4965466;28;20068;-55
2024/04/02 03:39:07;;;;;;;0.70;0.40;;;10.60;60.70;;;5.94;97.04;94964.91;4963015;28;20026;-56
2024/04/02 03:41:35;;;;;;;1.35;0.80;;;10.60;60.70;;;5.96;97.47;94976.03;4961710;28;20061;-55
2024/04/02 03:44:01;;;;;;;1.65;0.60;;;10.60;60.70;;;5.97;97.49;94980.28;4969148;28;20563;-56
2024/04/02 03:46:27;;;;;;;0.80;0.50;;;10.60;60.70;;;5.96;97.51;94978.69;4960530;28;20034;-52
2024/04/02 03:48:53;;;;;;;1.63;0.30;;;10.60;60.80;;;5.98;97.35;94987.94;4962160;28;20030;-56
2024/04/02 03:51:18;;;;;;;1.05;0.45;;;10.60;60.80;;;6.00;96.69;94987.72;4958295;28;20492;-55
2024/04/02 03:53:44;;;;;;;0.50;0.38;;;10.60;60.70;;;5.99;97.21;94986.91;4965909;28;20030;-57
2024/04/02 03:56:10;;;;;;;0.40;0.40;;;10.60;60.70;;;6.01;97.43;94987.44;4959522;28;20035;-56
2024/04/02 03:58:36;;;;;;;1.13;0.35;;;10.70;60.70;;;6.03;97.48;94993.28;4960098;28;20035;-53
2024/04/02 04:01:07;;;;;;;0.68;0.30;;;10.70;60.70;;;6.04;97.50;94996.72;4967940;28;20073;-54
2024/04/02 04:03:33;;;;;;;0.22;0.22;;;10.70;60.70;;;6.05;98.09;94987.78;4969891;28;20073;-54
2024/04/02 04:06:05;;;;;;;0.47;0.35;;;10.70;60.70;;;5.99;97.61;95000.13;4966230;28;20577;-54
2024/04/02 04:08:34;;;;;;;0.57;0.40;;;10.70;60.70;;;6.00;97.99;95008.88;4967372;28;20026;-48
2024/04/02 04:11:00;;;;;;;2.33;0.88;;;10.70;60.70;;;6.05;97.80;95005.47;4965695;28;20030;-49
2024/04/02 04:13:27;;;;;;;1.48;0.50;;;10.70;60.70;;;6.04;97.34;95023.16;4969514;28;20045;-55
2024/04/02 04:16:04;;;;;;;0.32;0.28;;;10.70;60.60;;;6.05;97.73;95019.50;4965827;28;20026;-53
2024/04/02 04:18:30;;;;;;;1.85;0.40;;;10.70;60.70;;;6.05;97.65;95021.31;4968135;28;20585;-50
2024/04/02 04:21:03;;;;;;;0.63;0.40;;;10.70;60.70;;;6.05;97.33;95022.16;4968587;28;20409;-48
2024/04/02 04:23:30;;;;;;;0.30;0.30;;;10.70;60.70;;;6.07;98.21;95029.81;4959003;28;20026;-49
2024/04/02 04:26:06;;;;;;;0.40;0.40;;;10.70;60.70;;;6.10;98.68;95029.31;4972274;28;20030;-51
2024/04/02 04:28:32;;;;;;;0.50;0.40;;;10.70;60.90;;;6.06;99.62;95036.16;4969924;28;20054;-49
2024/04/02 04:31:01;;;;;;;0.93;0.57;;;10.70;61.00;;;6.01;98.98;95027.09;4969570;28;20033;-49
2024/04/02 04:33:30;;;;;;;0.85;0.50;;;10.70;61.10;;;6.00;100.00;95040.59;4969709;28;20015;-55
2024/04/02 04:35:57;;;;;;;1.25;0.80;;;10.60;61.20;;;6.07;100.00;95040.38;4971787;28;20049;-49
2024/04/02 04:38:28;;;;;;;1.60;0.50;;;10.60;61.30;;;6.03;100.00;95042.75;4967143;28;20026;-53
2024/04/02 04:40:54;;;;;;;1.30;0.35;;;10.60;61.40;;;6.01;100.00;95052.75;4972263;28;20037;-53
2024/04/02 04:43:20;;;;;;;0.73;0.40;;;10.60;61.50;;;5.99;100.00;95045.09;4973120;28;20018;-57
2024/04/02 04:45:55;;;;;;;2.03;0.40;;;10.60;61.60;;;5.99;100.00;95047.72;4972285;28;20370;-56
2024/04/02 04:48:22;;;;;;;0.38;0.32;;;10.60;61.70;;;5.97;100.00;95057.75;4959601;28;20018;-53
2024/04/02 04:51:01;;;;;;;0.40;0.40;;;10.60;61.60;;;5.96;100.00;95060.66;4970395;28;20109;-53
2024/04/02 04:53:28;;;;;;;0.73;0.43;;;10.60;61.70;;;5.95;99.58;95061.66;4969316;28;20022;-55
2024/04/02 04:56:04;;;;;;;0.90;0.43;;;10.60;61.60;;;5.93;99.83;95054.00;4974202;28;20382;-51
2024/04/02 04:58:31;;;;;;;0.32;0.30;;;10.60;61.60;;;5.99;99.90;95063.59;4969840;28;20104;-54
2024/04/02 05:01:00;;;;;;;1.08;0.50;;;10.60;61.50;;;5.96;99.66;95072.00;4965952;28;20041;-52
2024/04/02 05:03:26;;;;;;;1.35;0.45;;;10.60;61.50;;;5.97;99.87;95070.16;4969911;28;20026;-56
2024/04/02 05:06:09;;;;;;;0.82;0.40;;;10.60;61.50;;;5.99;99.44;95071.53;4970767;28;20121;-53
2024/04/02 05:08:38;;;;;;;0.73;0.38;;;10.60;61.50;;;5.95;98.22;95078.31;4970692;28;20481;-53
2024/04/02 05:11:06;;;;;;;0.40;0.40;;;10.60;61.50;;;5.97;97.88;95075.44;4966544;28;20030;-56
2024/04/02 05:13:34;;;;;;;1.00;0.40;;;10.60;61.40;;;6.00;97.97;95072.31;4964799;28;20030;-54
2024/04/02 05:16:01;;;;;;;1.00;0.40;;;10.60;61.30;;;6.00;97.84;95082.91;4972138;28;20030;-50
2024/04/02 05:18:27;;;;;;;1.58;0.30;;;10.60;61.30;;;6.02;98.24;95084.25;4966208;28;20054;-54
2024/04/02 05:20:53;;;;;;;1.27;0.60;;;10.70;61.30;;;6.07;97.64;95085.34;4963655;28;20061;-53
2024/04/02 05:23:21;;;;;;;0.28;0.28;;;10.70;61.20;;;6.03;97.48;95087.69;4971134;28;20022;-48
2024/04/02 05:25:47;;;;;;;0.68;0.43;;;10.70;61.20;;;6.05;96.89;95092.72;4965590;28;20030;-53
2024/04/02 05:28:13;;;;;;;0.68;0.40;;;10.70;61.10;;;6.07;97.20;95094.06;4968391;28;20030;-50
2024/04/02 05:30:39;;;;;;;1.85;0.50;;;10.70;61.00;;;6.10;96.67;95098.88;4968011;28;20484;-52
2024/04/02 05:33:05;;;;;;;1.50;0.40;;;10.70;60.90;;;6.07;95.96;95093.28;4970958;28;20037;-48
2024/04/02 05:35:31;;;;;;;0.95;0.40;;;10.80;60.90;;;6.10;94.92;95093.56;4974955;28;20117;-48
2024/04/02 05:37:57;;;;;;;0.60;0.40;;;10.80;60.70;;;6.10;94.09;95101.50;4970409;28;20110;-51
2024/04/02 05:40:24;;;;;;;1.13;0.50;;;10.90;60.50;;;6.18;94.12;95106.38;4965630;28;20830;-53
2024/04/02 05:42:50;;;;;;;1.20;0.60;;;10.90;60.20;;;6.22;93.72;95117.25;4963335;28;20088;-54
2024/04/02 05:45:17;;;;;;;1.30;0.70;;;11.00;60.10;;;6.27;93.17;95127.88;4961400;28;20433;-54
2024/04/02 05:47:45;;;;;;;0.43;0.43;;;11.00;59.90;;;6.30;93.24;95122.09;4969685;28;20113;-54
2024/04/02 05:50:12;;;;;;;2.38;0.50;;;11.10;59.80;;;6.37;92.00;95129.84;4964306;28;20030;-56
2024/04/02 05:52:38;;;;;;;1.27;0.73;;;11.10;59.70;;;6.39;91.50;95115.31;4964906;28;20030;-49
2024/04/02 05:55:05;;;;;;;2.80;0.60;;;11.20;59.40;;;6.44;90.81;95127.78;4966828;28;20057;-50
2024/04/02 05:57:31;;;;;;;3.42;0.60;;;11.30;59.20;;;6.48;90.50;95124.38;4968961;28;20449;-49
2024/04/02 05:59:57;;;;;;;1.10;0.50;;;11.40;59.10;;;6.56;89.60;95132.94;4968756;28;20037;-50
2024/04/02 06:02:22;;;;;;;2.33;0.52;;;11.40;58.90;;;6.61;89.17;95140.91;4970717;28;20026;-52
2024/04/02 06:04:48;;;;;;;3.83;0.70;;;11.50;58.60;;;6.65;89.01;95140.19;4964007;28;20532;-49
2024/04/02 06:07:14;;;;;;;0.95;0.60;;;11.60;58.40;;;6.72;88.98;95148.72;4963368;28;20396;-49
2024/04/02 06:09:42;;;;;;;3.53;0.50;;;11.70;58.30;;;6.82;88.50;95149.84;4968539;28;20076;-55
2024/04/02 06:12:09;;;;;;;0.63;0.40;;;11.70;58.20;;;6.74;87.81;95167.00;4965988;28;20030;-49
2024/04/02 06:14:35;;;;;;;1.50;0.40;;;11.70;57.90;;;6.75;87.91;95155.34;4964259;28;20045;-48
2024/04/02 06:17:01;;;;;;;0.93;0.60;;;11.80;57.70;;;6.83;87.94;95162.84;4964563;28;20500;-50
2024/04/02 06:19:28;;;;;;;1.23;0.60;;;11.90;57.70;;;6.89;87.87;95156.56;4968094;28;20054;-48
2024/04/02 06:21:53;;;;;;;0.75;0.45;;;11.90;57.60;;;7.01;87.26;95164.31;4970734;28;20057;-51
2024/04/02 06:24:19;;;;;;;2.38;0.60;;;12.00;57.50;;;7.02;87.29;95165.94;4961846;28;20050;-52
2024/04/02 06:26:46;;;;;;;2.50;0.50;;;12.10;57.50;;;7.01;86.76;95172.25;4965568;28;20034;-50
2024/04/02 06:29:12;;;;;;;0.88;0.50;;;12.20;57.20;;;7.01;84.93;95174.91;4965943;28;20033;-52
2024/04/02 06:31:38;;;;;;;2.10;0.70;;;12.30;57.00;;;7.19;85.37;95184.34;4965885;28;20096;-50
2024/04/02 06:34:04;;;;;;;1.52;0.50;;;12.30;56.80;;;7.26;84.34;95179.63;4966840;28;20022;-54
2024/04/02 06:36:30;;;;;;;1.52;0.88;;;12.50;56.70;;;7.27;83.53;95186.53;4967995;28;20036;-53
2024/04/02 06:38:57;;;;;;;0.95;0.40;;;12.50;56.40;;;7.30;83.26;95191.34;4963618;28;20378;-53
2024/04/02 06:41:23;;;;;;;1.48;0.68;;;12.60;56.10;;;7.35;83.38;95190.56;4965561;28;20123;-56
2024/04/02 06:43:50;;;;;;;1.10;0.70;;;12.70;55.90;;;7.40;83.11;95191.41;4975271;28;20022;-54
2024/04/02 06:46:16;;;;;;;2.58;0.57;;;12.80;55.80;;;7.36;83.00;95198.28;4963920;28;20125;-56
2024/04/02 06:48:42;;;;;;;0.98;0.55;;;12.80;55.50;;;7.35;83.06;95191.34;4967478;28;20632;-51
2024/04/02 06:51:08;;;;;;;1.98;0.77;;;12.80;55.40;;;7.61;81.63;95199.50;4964128;28;20065;-54
2024/04/02 06:53:34;;;;;;;2.05;0.50;;;13.10;55.70;;;7.87;80.33;95198.63;4967826;28;20067;-52
2024/04/02 06:56:01;;;;;;;2.80;0.55;;;13.40;54.70;;;7.95;79.94;95199.19;4966394;28;20042;-55
2024/04/02 06:58:28;;;;;;;1.40;0.50;;;13.50;54.50;;;7.89;78.08;95203.66;4962545;28;20033;-57
2024/04/02 07:00:54;;;;;;;2.03;0.70;;;13.50;54.10;;;8.14;78.85;95204.84;4965441;28;20540;-52
2024/04/02 07:03:22;;;;;;;3.47;0.80;;;13.80;53.80;;;8.24;76.17;95192.44;4970848;28;20026;-55
2024/04/02 07:05:52;;;;;;;0.60;0.50;;;14.00;53.40;;;8.35;77.63;95201.22;4962917;28;20034;-55
2024/04/02 07:08:24;;;;;;;2.42;0.68;;;14.20;53.00;;;8.53;76.63;95207.97;4970093;28;20022;-52
2024/04/02 07:10:59;;;;;;;2.08;0.63;;;14.30;52.90;;;8.62;74.66;95200.28;4969249;28;20157;-49
2024/04/02 07:13:26;;;;;;;2.55;1.08;;;14.40;52.70;;;8.87;74.60;95205.69;4974051;28;20123;-49
2024/04/02 07:15:54;;;;;;;1.65;0.60;;;14.70;52.50;;;9.25;73.22;95206.25;4960511;28;20482;-51
2024/04/02 07:18:20;;;;;;;1.92;0.60;;;15.20;52.00;;;9.52;72.00;95208.66;4963264;28;20385;-54
2024/04/02 07:21:05;;;;;;;1.80;0.75;;;15.50;51.70;;;9.64;70.98;95208.38;4963613;28;20175;-51
2024/04/02 07:23:33;;;;;;;1.23;0.73;;;15.60;51.30;;;9.57;70.20;95213.19;4966284;28;20081;-50
2024/04/02 07:26:00;;;;;;;3.33;0.65;;;15.50;50.90;;;9.44;70.49;95220.63;4965772;28;20030;-51
2024/04/02 07:28:26;;;;;;;1.02;0.68;;;15.40;50.70;;;9.27;71.37;95220.06;4966979;28;20053;-52
2024/04/02 07:30:54;;;;;;;1.30;0.65;;;15.20;50.40;;;9.31;72.30;95229.13;4962908;28;20160;-49
2024/04/02 07:33:20;;;;;;;0.60;0.55;;;15.20;50.60;;;9.58;71.49;95233.38;4968257;28;20113;-49
2024/04/02 07:35:48;;;;;;;2.83;0.70;;;15.50;50.50;;;9.90;70.10;95225.09;4963410;28;20045;-52
2024/04/02 07:38:14;;;;;;;3.13;0.70;;;15.70;50.30;;;10.07;68.53;95230.16;4966055;28;20022;-55
2024/04/02 07:40:43;;;;;;;2.88;1.00;;;16.10;49.90;;;10.53;69.31;95224.69;4965411;28;20567;-51
2024/04/02 07:43:09;;;;;;;1.88;0.65;;;16.40;49.90;;;10.67;67.05;95230.25;4964413;28;20092;-48
2024/04/02 07:45:36;;;;;;;1.80;0.65;;;16.60;49.50;;;10.93;64.79;95231.72;4966187;28;20026;-52
2024/04/02 07:48:03;;;;;;;2.65;0.80;;;16.90;48.90;;;10.86;65.89;95233.88;4963221;28;20032;-54
2024/04/02 07:50:32;;;;;;;3.03;1.10;;;17.10;48.40;;;11.02;64.00;95215.94;4966762;28;20037;-50
2024/04/02 07:52:58;;;;;;;3.75;0.70;;;17.30;47.90;;;10.87;62.84;95251.44;4968342;28;20018;-51
2024/04/02 07:55:24;;;;;;;3.00;1.10;;;17.50;46.70;;;10.65;62.57;95234.00;4967674;28;20049;-52
2024/04/02 07:57:51;;;;;;;2.60;0.80;;;17.70;45.70;;;10.90;62.27;95242.91;4974901;28;20041;-51
2024/04/02 08:00:20;;;;;;;3.67;1.00;;;17.80;45.10;;;10.87;62.12;95238.94;4969620;28;20530;-50
2024/04/02 08:02:46;;;;;;;1.27;0.70;;;17.90;44.50;;;10.83;61.06;95242.41;4969687;28;20030;-53
2024/04/02 08:05:16;;;;;;;4.50;0.98;;;18.10;43.90;;;11.08;62.18;95233.50;4970397;28;20064;-48
2024/04/02 08:07:46;;;;;;;2.88;0.80;;;18.10;43.90;;;11.04;61.34;95238.59;4968477;28;20046;-49
2024/04/02 08:10:13;;;;;;;1.73;0.82;;;18.20;43.60;;;11.25;61.95;95249.94;4970900;28;20473;-49
2024/04/02 08:12:39;;;;;;;2.22;0.73;;;18.30;43.30;;;11.05;60.12;95247.38;4965157;28;20022;-49
2024/04/02 08:15:06;;;;;;;1.63;0.63;;;18.20;43.00;;;11.16;61.27;95246.25;4969524;28;20022;-53
2024/04/02 08:17:33;;;;;;;3.08;0.80;;;18.10;43.20;;;11.50;59.74;95250.81;4966915;28;20117;-49
2024/04/02 08:19:58;;;;;;;1.85;0.80;;;18.30;43.40;;;11.57;59.16;95256.66;4967597;28;20030;-50
2024/04/02 08:22:24;;;;;;;1.38;0.80;;;18.40;43.00;;;11.47;60.33;95254.84;4970786;28;20536;-51
2024/04/02 08:24:55;;;;;;;1.67;0.88;;;18.60;42.60;;;11.54;57.80;95259.88;4968919;28;20570;-49
2024/04/02 08:27:21;;;;;;;3.35;1.10;;;18.60;42.50;;;11.72;58.51;95253.03;4968858;28;20473;-50
2024/04/02 08:29:50;;;;;;;4.10;1.00;;;18.60;42.40;;;11.91;57.10;95254.00;4967529;28;20068;-52
2024/04/02 08:32:17;;;;;;;2.63;0.90;;;18.80;42.20;;;11.82;57.21;95252.97;4967715;28;20022;-53
2024/04/02 08:34:43;;;;;;;1.33;0.80;;;18.90;41.70;;;11.38;58.02;95256.50;4968649;28;20033;-54
2024/04/02 08:37:09;;;;;;;2.03;0.90;;;18.90;41.20;;;11.32;58.09;95261.06;4969536;28;20113;-54
2024/04/02 08:39:35;;;;;;;1.40;0.80;;;18.80;40.90;;;11.35;58.14;95260.53;4968191;28;20440;-52
2024/04/02 08:42:05;;;;;;;2.10;0.90;;;18.70;41.10;;;11.28;57.64;95262.72;4964247;28;20034;-50
2024/04/02 08:44:41;;;;;;;1.65;0.80;;;18.50;41.10;;;11.25;58.44;95268.59;4972884;28;20121;-54
2024/04/02 08:47:10;;;;;;;1.88;0.73;;;18.40;41.40;;;11.33;59.54;95259.19;4961658;28;20022;-53
2024/04/02 08:49:36;;;;;;;3.20;0.73;;;18.30;41.50;;;11.49;58.62;95257.22;4971703;28;20026;-54
2024/04/02 08:52:04;;;;;;;3.50;0.82;;;18.30;41.80;;;11.85;59.09;95271.13;4968046;28;20139;-50
2024/04/02 08:54:31;;;;;;;1.27;0.90;;;18.60;42.00;;;11.92;56.11;95265.47;4963024;28;20440;-51
2024/04/02 08:56:58;;;;;;;3.50;0.98;;;18.80;41.80;;;11.79;55.74;95274.88;4972530;28;20036;-50
2024/04/02 08:59:32;;;;;;;2.05;0.93;;;18.80;41.30;;;11.69;58.75;95278.44;4962445;28;20501;-55
2024/04/02 09:02:02;;;;;;;2.03;0.73;;;18.90;40.90;;;11.74;56.07;95267.69;4971518;28;20034;-54
2024/04/02 09:04:32;;;;;;;2.53;0.80;;;19.00;40.40;;;11.63;57.14;95263.53;4972168;28;20046;-54
2024/04/02 09:06:58;;;;;;;2.20;0.80;;;18.90;40.20;;;11.72;56.26;95263.72;4970399;28;20409;-57
2024/04/02 09:09:25;;;;;;;3.25;0.75;;;18.70;40.50;;;11.59;55.59;95265.16;4971814;28;20034;-54
2024/04/02 09:11:53;;;;;;;2.67;0.80;;;18.60;40.70;;;11.25;56.09;95260.59;4968360;28;20049;-56
2024/04/02 09:14:25;;;;;;;2.00;0.88;;;18.40;40.40;;;11.06;58.63;95271.09;4972908;28;20022;-52
2024/04/02 09:16:55;;;;;;;2.10;0.80;;;18.30;40.30;;;11.21;58.65;95274.75;4966963;28;20037;-56
2024/04/02 09:19:21;;;;;;;3.08;0.80;;;18.10;40.70;;;11.09;58.78;95267.06;4967969;28;20053;-52
2024/04/02 09:21:46;;;;;;;2.20;0.73;;;18.10;40.70;;;10.92;57.89;95272.75;4968458;28;20590;-52
2024/04/02 09:24:13;;;;;;;4.35;0.90;;;18.00;40.60;;;10.88;57.00;95269.06;4968354;28;20026;-56
2024/04/02 09:26:39;;;;;;;2.70;1.00;;;18.00;40.50;;;10.99;57.14;95275.13;4968435;28;20026;-55
2024/04/02 09:29:05;;;;;;;1.85;0.90;;;18.20;40.20;;;11.36;57.88;95277.31;4965557;28;20034;-52
2024/04/02 09:31:33;;;;;;;1.73;0.70;;;18.30;40.40;;;11.84;58.29;95288.16;4965859;28;20120;-55
2024/04/02 09:34:08;;;;;;;1.30;0.70;;;18.60;40.60;;;11.99;54.77;95268.59;4966510;28;20453;-54
2024/04/02 09:36:59;;;;;;;1.65;0.73;;;19.00;40.20;;;12.28;55.67;95284.59;4967225;28;20493;-54
2024/04/02 09:39:29;;;;;;;1.65;0.80;;;19.30;40.00;;;12.24;54.61;95279.03;4964998;28;20045;-55
2024/04/02 09:41:59;;;;;;;3.72;1.15;;;19.60;39.60;;;12.21;54.95;95284.94;4962787;28;20117;-55
2024/04/02 09:44:32;;;;;;;1.77;0.70;;;19.70;39.10;;;11.77;54.95;95288.50;4963762;28;20053;-57
2024/04/02 09:47:01;;;;;;;2.22;1.20;;;19.60;38.50;;;11.68;55.23;95284.81;4979542;28;20499;-54
2024/04/02 09:49:27;;;;;;;1.45;0.75;;;19.70;37.90;;;11.73;56.67;95292.00;4968031;28;20068;-55
2024/04/02 09:51:57;;;;;;;2.72;1.17;;;19.70;37.80;;;12.35;56.90;95277.09;4966055;28;20421;-50
2024/04/02 09:54:23;;;;;;;1.92;0.90;;;20.00;38.10;;;12.29;57.57;95294.22;4967995;28;20026;-56
2024/04/02 09:56:51;;;;;;;1.02;0.90;;;20.00;38.40;;;11.72;56.29;95288.56;4969210;28;20046;-53
2024/04/02 09:59:18;;;;;;;0.77;0.70;;;19.90;37.90;;;11.93;57.04;95288.41;4956546;28;20032;-54
2024/04/02 10:01:45;;;;;;;3.58;0.82;;;19.80;37.90;;;11.74;57.01;95285.59;4966373;28;20060;-52
2024/04/02 10:04:15;;;;;;;1.17;0.90;;;19.70;37.90;;;12.00;59.66;95283.53;4963600;28;20029;-50
2024/04/02 10:06:42;;;;;;;1.25;0.80;;;19.70;38.20;;;12.18;59.88;95285.50;4969111;28;20050;-51
2024/04/02 10:09:12;;;;;;;1.75;0.70;;;19.60;39.00;;;12.23;60.64;95292.69;4970232;28;20486;-51
2024/04/02 10:11:41;;;;;;;1.83;0.85;;;19.40;39.50;;;12.62;60.03;95294.41;4970128;28;20025;-55
2024/04/02 10:14:15;;;;;;;1.52;0.77;;;19.80;39.80;;;13.16;59.70;95287.88;4968592;28;20112;-54
2024/04/02 10:16:50;;;;;;;1.55;1.00;;;20.30;39.70;;;13.48;57.39;95287.22;4962567;28;20046;-57
2024/04/02 10:19:19;;;;;;;0.90;0.73;;;20.80;39.30;;;13.89;54.94;95295.44;4965735;28;20392;-54
2024/04/02 10:21:47;;;;;;;0.90;0.80;;;21.30;38.80;;;13.95;55.74;95298.03;4969218;28;20033;-54
2024/04/02 10:24:19;;;;;;;1.25;0.70;;;21.50;38.60;;;13.63;55.06;95296.91;4972084;28;20026;-56